Terminal Aerodrome Forecast
Issued by NWS

Home | Current Version | Previous Version | Text Only | Print | Product List | Glossary On
Versions: 1 2 3 4 5 6 7 8 9 10 11 12 13 14 15 16 17 18 19 20 21 22 23 24 25 26
000
FTUS43 KDDC 061120
TAFHYS
TAF
KHYS 061120Z 0612/0712 18005KT P6SM BKN250 WS004/17040KT
     FM061500 18018G28KT P6SM BKN250
     FM070500 18012KT P6SM SCT250 WS004/23040KT=

USA.gov is the U.S. government's official web portal to all federal, state and local government web resources and services.